Bradevelt, New Jersey
Current Conditions -  °F | °C
As of 12:15 PM on Friday 24 Oct 2014 (Local Time) from KBLM Reporting Station
Broken Clouds Broken Clouds  
Wind Chill: 59°   Ceiling: 3400
Heat Index: 59°   Visibility: 10mi
Dew Point: 43°   Wind: 17mph
Humidity: 55%   Direction: 340°NNW
Pressure: 29.82"   Gusts: 28mph
Location:  40.3194°N, 74.2497°W
Report Text: KBLM 241615Z AUTO 34015G24KT 10SM BKN034 15/06 A2982 RMK AO1
Loading
Personal Weather Stations






























Interactive Weather Map
Tropical Storm Tracking
New forecast layout! Learn more

10-Day Weather Forecast

Advertisements
Track Severe Weather on mobile